sensor_id;sensor_type;location;lat;lon;timestamp;temperature;humidity
39695;DHT22;25367;-35.352;149.036;2023-06-24T00:00:24;18.40;58.70
39695;DHT22;25367;-35.352;149.036;2023-06-24T00:02:57;18.40;58.60
39695;DHT22;25367;-35.352;149.036;2023-06-24T00:05:27;18.40;58.50
39695;DHT22;25367;-35.352;149.036;2023-06-24T00:07:57;18.40;58.50
39695;DHT22;25367;-35.352;149.036;2023-06-24T00:10:26;18.50;58.50
39695;DHT22;25367;-35.352;149.036;2023-06-24T00:12:59;18.50;58.50
39695;DHT22;25367;-35.352;149.036;2023-06-24T00:15:28;18.60;58.40
39695;DHT22;25367;-35.352;149.036;2023-06-24T00:17:58;18.60;58.40
39695;DHT22;25367;-35.352;149.036;2023-06-24T00:20:28;18.60;58.40
39695;DHT22;25367;-35.352;149.036;2023-06-24T00:22:57;18.60;58.40
39695;DHT22;25367;-35.352;149.036;2023-06-24T00:25:27;18.60;58.30
39695;DHT22;25367;-35.352;149.036;2023-06-24T00:27:59;18.60;58.20
39695;DHT22;25367;-35.352;149.036;2023-06-24T00:30:29;18.70;58.20
39695;DHT22;25367;-35.352;149.036;2023-06-24T00:32:58;18.70;58.20
39695;DHT22;25367;-35.352;149.036;2023-06-24T00:35:30;18.70;58.20
39695;DHT22;25367;-35.352;149.036;2023-06-24T00:37:59;18.70;58.20
39695;DHT22;25367;-35.352;149.036;2023-06-24T00:40:29;18.70;58.10
39695;DHT22;25367;-35.352;149.036;2023-06-24T00:43:02;18.80;58.10
39695;DHT22;25367;-35.352;149.036;2023-06-24T00:45:32;18.80;58.10
39695;DHT22;25367;-35.352;149.036;2023-06-24T00:48:02;18.80;58.10
39695;DHT22;25367;-35.352;149.036;2023-06-24T00:50:32;18.80;58.10
39695;DHT22;25367;-35.352;149.036;2023-06-24T00:53:02;18.80;58.10
39695;DHT22;25367;-35.352;149.036;2023-06-24T00:55:32;18.80;58.10
39695;DHT22;25367;-35.352;149.036;2023-06-24T00:58:05;18.90;58.10
39695;DHT22;25367;-35.352;149.036;2023-06-24T01:00:35;18.90;58.10
39695;DHT22;25367;-35.352;149.036;2023-06-24T01:03:04;18.90;58.10
39695;DHT22;25367;-35.352;149.036;2023-06-24T01:05:35;18.90;58.10
39695;DHT22;25367;-35.352;149.036;2023-06-24T01:08:05;18.90;58.10
39695;DHT22;25367;-35.352;149.036;2023-06-24T01:10:35;18.90;58.00
39695;DHT22;25367;-35.352;149.036;2023-06-24T01:13:08;18.90;58.00
39695;DHT22;25367;-35.352;149.036;2023-06-24T01:15:37;19.00;58.00
39695;DHT22;25367;-35.352;149.036;2023-06-24T01:18:10;18.90;58.00
39695;DHT22;25367;-35.352;149.036;2023-06-24T01:20:44;19.00;58.00
39695;DHT22;25367;-35.352;149.036;2023-06-24T01:23:41;19.00;58.00
39695;DHT22;25367;-35.352;149.036;2023-06-24T01:26:32;19.00;57.70
39695;DHT22;25367;-35.352;149.036;2023-06-24T01:29:25;19.00;57.90
39695;DHT22;25367;-35.352;149.036;2023-06-24T01:32:01;19.00;57.80
39695;DHT22;25367;-35.352;149.036;2023-06-24T01:34:36;19.00;57.90
39695;DHT22;25367;-35.352;149.036;2023-06-24T01:37:13;19.00;57.90
39695;DHT22;25367;-35.352;149.036;2023-06-24T01:39:52;19.00;57.80
39695;DHT22;25367;-35.352;149.036;2023-06-24T01:42:24;19.00;57.80
39695;DHT22;25367;-35.352;149.036;2023-06-24T01:44:55;19.00;57.80
39695;DHT22;25367;-35.352;149.036;2023-06-24T01:47:30;19.00;57.80
39695;DHT22;25367;-35.352;149.036;2023-06-24T01:50:02;19.10;57.70
39695;DHT22;25367;-35.352;149.036;2023-06-24T01:52:33;19.10;57.80
39695;DHT22;25367;-35.352;149.036;2023-06-24T01:55:05;19.10;57.70
39695;DHT22;25367;-35.352;149.036;2023-06-24T01:57:36;19.10;57.70
39695;DHT22;25367;-35.352;149.036;2023-06-24T02:00:08;19.10;57.70
39695;DHT22;25367;-35.352;149.036;2023-06-24T02:02:55;19.10;57.70
39695;DHT22;25367;-35.352;149.036;2023-06-24T02:05:25;19.10;57.70
39695;DHT22;25367;-35.352;149.036;2023-06-24T02:07:57;19.10;57.70
39695;DHT22;25367;-35.352;149.036;2023-06-24T02:10:28;19.10;57.70
39695;DHT22;25367;-35.352;149.036;2023-06-24T02:12:59;19.10;57.70
39695;DHT22;25367;-35.352;149.036;2023-06-24T02:15:29;19.20;57.70
39695;DHT22;25367;-35.352;149.036;2023-06-24T02:18:04;19.20;57.70
39695;DHT22;25367;-35.352;149.036;2023-06-24T02:20:35;19.20;57.70
39695;DHT22;25367;-35.352;149.036;2023-06-24T02:23:07;19.20;57.70
39695;DHT22;25367;-35.352;149.036;2023-06-24T02:25:38;19.10;57.60
39695;DHT22;25367;-35.352;149.036;2023-06-24T02:28:08;19.20;57.70
39695;DHT22;25367;-35.352;149.036;2023-06-24T02:30:39;19.20;57.70
39695;DHT22;25367;-35.352;149.036;2023-06-24T02:33:14;19.20;57.70
39695;DHT22;25367;-35.352;149.036;2023-06-24T02:35:46;19.20;57.60
39695;DHT22;25367;-35.352;149.036;2023-06-24T02:38:15;19.20;57.60
39695;DHT22;25367;-35.352;149.036;2023-06-24T02:40:46;19.20;57.60
39695;DHT22;25367;-35.352;149.036;2023-06-24T02:43:16;19.20;57.50
39695;DHT22;25367;-35.352;149.036;2023-06-24T02:45:47;19.20;57.50
39695;DHT22;25367;-35.352;149.036;2023-06-24T02:48:21;19.20;57.50
39695;DHT22;25367;-35.352;149.036;2023-06-24T02:50:51;19.20;57.40
39695;DHT22;25367;-35.352;149.036;2023-06-24T02:53:22;19.20;57.50
39695;DHT22;25367;-35.352;149.036;2023-06-24T02:55:52;19.20;57.40
39695;DHT22;25367;-35.352;149.036;2023-06-24T02:58:24;19.20;57.40
39695;DHT22;25367;-35.352;149.036;2023-06-24T03:01:04;19.20;58.00
39695;DHT22;25367;-35.352;149.036;2023-06-24T03:03:54;19.20;57.40
39695;DHT22;25367;-35.352;149.036;2023-06-24T03:06:25;19.20;57.40
39695;DHT22;25367;-35.352;149.036;2023-06-24T03:08:59;19.20;57.40
39695;DHT22;25367;-35.352;149.036;2023-06-24T03:11:29;19.20;57.40
39695;DHT22;25367;-35.352;149.036;2023-06-24T03:14:01;19.20;57.40
39695;DHT22;25367;-35.352;149.036;2023-06-24T03:16:39;19.30;57.40
39695;DHT22;25367;-35.352;149.036;2023-06-24T03:19:17;19.20;57.40
39695;DHT22;25367;-35.352;149.036;2023-06-24T03:21:47;19.30;57.50
39695;DHT22;25367;-35.352;149.036;2023-06-24T03:24:18;19.20;57.40
39695;DHT22;25367;-35.352;149.036;2023-06-24T03:26:51;19.30;57.50
39695;DHT22;25367;-35.352;149.036;2023-06-24T03:29:22;19.20;58.00
39695;DHT22;25367;-35.352;149.036;2023-06-24T03:32:01;19.20;57.60
39695;DHT22;25367;-35.352;149.036;2023-06-24T03:34:33;19.30;57.90
39695;DHT22;25367;-35.352;149.036;2023-06-24T03:37:03;19.30;57.90
39695;DHT22;25367;-35.352;149.036;2023-06-24T03:39:34;19.30;57.80
39695;DHT22;25367;-35.352;149.036;2023-06-24T03:42:05;19.30;57.80
39695;DHT22;25367;-35.352;149.036;2023-06-24T03:44:35;19.30;58.30
39695;DHT22;25367;-35.352;149.036;2023-06-24T03:47:05;19.30;57.90
39695;DHT22;25367;-35.352;149.036;2023-06-24T03:49:38;19.30;57.80
39695;DHT22;25367;-35.352;149.036;2023-06-24T03:52:08;19.30;57.80
39695;DHT22;25367;-35.352;149.036;2023-06-24T03:54:38;19.30;58.00
39695;DHT22;25367;-35.352;149.036;2023-06-24T03:57:09;19.40;57.90
39695;DHT22;25367;-35.352;149.036;2023-06-24T03:59:38;19.40;57.90
39695;DHT22;25367;-35.352;149.036;2023-06-24T04:02:08;19.40;57.80
39695;DHT22;25367;-35.352;149.036;2023-06-24T04:04:40;19.40;57.80
39695;DHT22;25367;-35.352;149.036;2023-06-24T04:07:10;19.50;57.90
39695;DHT22;25367;-35.352;149.036;2023-06-24T04:09:40;19.40;57.80
39695;DHT22;25367;-35.352;149.036;2023-06-24T04:12:11;19.40;57.70
39695;DHT22;25367;-35.352;149.036;2023-06-24T04:14:40;19.40;57.60
39695;DHT22;25367;-35.352;149.036;2023-06-24T04:17:10;19.50;57.60
39695;DHT22;25367;-35.352;149.036;2023-06-24T04:19:42;19.50;57.50
39695;DHT22;25367;-35.352;149.036;2023-06-24T04:22:12;19.50;57.40
39695;DHT22;25367;-35.352;149.036;2023-06-24T04:24:42;19.50;57.40
39695;DHT22;25367;-35.352;149.036;2023-06-24T04:27:11;19.50;57.40
39695;DHT22;25367;-35.352;149.036;2023-06-24T04:29:41;19.50;57.30
39695;DHT22;25367;-35.352;149.036;2023-06-24T04:32:11;19.50;57.30
39695;DHT22;25367;-35.352;149.036;2023-06-24T04:34:44;19.50;57.20
39695;DHT22;25367;-35.352;149.036;2023-06-24T04:37:14;19.50;57.20
39695;DHT22;25367;-35.352;149.036;2023-06-24T04:39:44;19.50;57.20
39695;DHT22;25367;-35.352;149.036;2023-06-24T04:42:14;19.50;57.20
39695;DHT22;25367;-35.352;149.036;2023-06-24T04:44:43;19.50;57.10
39695;DHT22;25367;-35.352;149.036;2023-06-24T04:47:13;19.60;57.10
39695;DHT22;25367;-35.352;149.036;2023-06-24T04:49:46;19.60;57.10
39695;DHT22;25367;-35.352;149.036;2023-06-24T04:52:16;19.60;57.10
39695;DHT22;25367;-35.352;149.036;2023-06-24T04:54:46;19.60;57.00
39695;DHT22;25367;-35.352;149.036;2023-06-24T04:57:25;19.60;57.00
39695;DHT22;25367;-35.352;149.036;2023-06-24T04:59:55;19.60;57.00
39695;DHT22;25367;-35.352;149.036;2023-06-24T05:02:25;19.60;56.90
39695;DHT22;25367;-35.352;149.036;2023-06-24T05:04:58;19.60;56.90
39695;DHT22;25367;-35.352;149.036;2023-06-24T05:07:28;19.60;56.80
39695;DHT22;25367;-35.352;149.036;2023-06-24T05:09:58;19.60;56.90
39695;DHT22;25367;-35.352;149.036;2023-06-24T05:12:27;19.60;56.80
39695;DHT22;25367;-35.352;149.036;2023-06-24T05:14:57;19.60;56.80
39695;DHT22;25367;-35.352;149.036;2023-06-24T05:17:27;19.60;56.80
39695;DHT22;25367;-35.352;149.036;2023-06-24T05:20:00;19.60;56.70
39695;DHT22;25367;-35.352;149.036;2023-06-24T05:22:29;19.60;56.70
39695;DHT22;25367;-35.352;149.036;2023-06-24T05:24:59;19.60;56.70
39695;DHT22;25367;-35.352;149.036;2023-06-24T05:27:29;19.60;56.70
39695;DHT22;25367;-35.352;149.036;2023-06-24T05:29:58;19.60;56.70
39695;DHT22;25367;-35.352;149.036;2023-06-24T05:32:28;19.70;56.70
39695;DHT22;25367;-35.352;149.036;2023-06-24T05:35:00;19.70;56.70
39695;DHT22;25367;-35.352;149.036;2023-06-24T05:37:30;19.70;56.70
39695;DHT22;25367;-35.352;149.036;2023-06-24T05:39:59;19.70;56.70
39695;DHT22;25367;-35.352;149.036;2023-06-24T05:42:29;19.70;56.70
39695;DHT22;25367;-35.352;149.036;2023-06-24T05:44:58;19.60;56.60
39695;DHT22;25367;-35.352;149.036;2023-06-24T05:47:28;19.70;56.60
39695;DHT22;25367;-35.352;149.036;2023-06-24T05:50:01;19.70;56.60
39695;DHT22;25367;-35.352;149.036;2023-06-24T05:52:30;19.70;56.60
39695;DHT22;25367;-35.352;149.036;2023-06-24T05:55:00;19.70;56.60
39695;DHT22;25367;-35.352;149.036;2023-06-24T05:57:30;19.70;56.80
39695;DHT22;25367;-35.352;149.036;2023-06-24T05:59:59;19.70;56.80
39695;DHT22;25367;-35.352;149.036;2023-06-24T06:02:29;19.70;56.80
39695;DHT22;25367;-35.352;149.036;2023-06-24T06:05:02;19.70;56.80
39695;DHT22;25367;-35.352;149.036;2023-06-24T06:07:32;19.70;56.90
39695;DHT22;25367;-35.352;149.036;2023-06-24T06:10:01;19.70;56.90
39695;DHT22;25367;-35.352;149.036;2023-06-24T06:12:31;19.70;56.80
39695;DHT22;25367;-35.352;149.036;2023-06-24T06:15:01;19.70;56.90
39695;DHT22;25367;-35.352;149.036;2023-06-24T06:17:30;19.70;56.80
39695;DHT22;25367;-35.352;149.036;2023-06-24T06:20:03;19.70;56.80
39695;DHT22;25367;-35.352;149.036;2023-06-24T06:22:33;19.70;56.70
39695;DHT22;25367;-35.352;149.036;2023-06-24T06:25:04;19.70;56.80
39695;DHT22;25367;-35.352;149.036;2023-06-24T06:27:34;19.60;57.30
39695;DHT22;25367;-35.352;149.036;2023-06-24T06:30:04;19.70;56.70
39695;DHT22;25367;-35.352;149.036;2023-06-24T06:32:34;19.70;56.60
39695;DHT22;25367;-35.352;149.036;2023-06-24T06:35:08;19.70;56.60
39695;DHT22;25367;-35.352;149.036;2023-06-24T06:37:37;19.70;56.50
39695;DHT22;25367;-35.352;149.036;2023-06-24T06:40:08;19.70;56.40
39695;DHT22;25367;-35.352;149.036;2023-06-24T06:42:38;19.70;56.30
39695;DHT22;25367;-35.352;149.036;2023-06-24T06:45:08;19.70;56.30
39695;DHT22;25367;-35.352;149.036;2023-06-24T06:47:37;19.70;56.20
39695;DHT22;25367;-35.352;149.036;2023-06-24T06:50:10;19.60;56.00
39695;DHT22;25367;-35.352;149.036;2023-06-24T06:52:39;19.70;56.20
39695;DHT22;25367;-35.352;149.036;2023-06-24T06:55:11;19.70;56.10
39695;DHT22;25367;-35.352;149.036;2023-06-24T06:57:40;19.70;56.10
39695;DHT22;25367;-35.352;149.036;2023-06-24T07:00:10;19.80;56.30
39695;DHT22;25367;-35.352;149.036;2023-06-24T07:02:40;19.80;56.40
39695;DHT22;25367;-35.352;149.036;2023-06-24T07:05:13;19.80;56.60
39695;DHT22;25367;-35.352;149.036;2023-06-24T07:07:43;19.90;56.60
39695;DHT22;25367;-35.352;149.036;2023-06-24T07:10:13;19.90;56.50
39695;DHT22;25367;-35.352;149.036;2023-06-24T07:12:42;19.90;56.40
39695;DHT22;25367;-35.352;149.036;2023-06-24T07:15:12;19.90;56.30
39695;DHT22;25367;-35.352;149.036;2023-06-24T07:17:41;19.90;56.30
39695;DHT22;25367;-35.352;149.036;2023-06-24T07:20:15;20.00;56.30
39695;DHT22;25367;-35.352;149.036;2023-06-24T07:22:45;20.00;56.20
39695;DHT22;25367;-35.352;149.036;2023-06-24T07:25:15;20.00;56.10
39695;DHT22;25367;-35.352;149.036;2023-06-24T07:27:44;20.00;56.10
39695;DHT22;25367;-35.352;149.036;2023-06-24T07:30:14;20.00;56.10
39695;DHT22;25367;-35.352;149.036;2023-06-24T07:32:43;20.00;55.80
39695;DHT22;25367;-35.352;149.036;2023-06-24T07:35:16;20.00;55.90
39695;DHT22;25367;-35.352;149.036;2023-06-24T07:37:46;20.00;55.90
39695;DHT22;25367;-35.352;149.036;2023-06-24T07:40:16;20.00;55.90
39695;DHT22;25367;-35.352;149.036;2023-06-24T07:42:45;20.00;55.90
39695;DHT22;25367;-35.352;149.036;2023-06-24T07:45:15;20.00;55.90
39695;DHT22;25367;-35.352;149.036;2023-06-24T07:47:45;20.00;55.80
39695;DHT22;25367;-35.352;149.036;2023-06-24T07:50:17;20.00;55.80
39695;DHT22;25367;-35.352;149.036;2023-06-24T07:52:47;20.00;55.70
39695;DHT22;25367;-35.352;149.036;2023-06-24T07:55:17;20.00;55.70
39695;DHT22;25367;-35.352;149.036;2023-06-24T07:57:47;20.00;55.70
39695;DHT22;25367;-35.352;149.036;2023-06-24T08:00:17;20.00;55.70
39695;DHT22;25367;-35.352;149.036;2023-06-24T08:02:47;20.00;55.60
39695;DHT22;25367;-35.352;149.036;2023-06-24T08:05:19;20.00;55.60
39695;DHT22;25367;-35.352;149.036;2023-06-24T08:07:50;20.00;55.80
39695;DHT22;25367;-35.352;149.036;2023-06-24T08:10:20;20.00;55.80
39695;DHT22;25367;-35.352;149.036;2023-06-24T08:12:49;20.00;55.80
39695;DHT22;25367;-35.352;149.036;2023-06-24T08:15:19;20.00;55.80
39695;DHT22;25367;-35.352;149.036;2023-06-24T08:17:52;20.00;55.90
39695;DHT22;25367;-35.352;149.036;2023-06-24T08:20:25;20.10;56.10
39695;DHT22;25367;-35.352;149.036;2023-06-24T08:22:55;20.10;56.20
39695;DHT22;25367;-35.352;149.036;2023-06-24T08:25:24;20.10;56.30
39695;DHT22;25367;-35.352;149.036;2023-06-24T08:27:54;20.20;56.40
39695;DHT22;25367;-35.352;149.036;2023-06-24T08:30:24;20.20;56.80
39695;DHT22;25367;-35.352;149.036;2023-06-24T08:32:53;20.20;56.40
39695;DHT22;25367;-35.352;149.036;2023-06-24T08:35:26;20.20;56.50
39695;DHT22;25367;-35.352;149.036;2023-06-24T08:37:56;20.30;56.20
39695;DHT22;25367;-35.352;149.036;2023-06-24T08:40:25;20.30;56.00
39695;DHT22;25367;-35.352;149.036;2023-06-24T08:42:55;20.20;55.90
39695;DHT22;25367;-35.352;149.036;2023-06-24T08:45:25;20.30;55.60
39695;DHT22;25367;-35.352;149.036;2023-06-24T08:47:56;20.30;55.60
39695;DHT22;25367;-35.352;149.036;2023-06-24T08:50:31;20.30;55.50
39695;DHT22;25367;-35.352;149.036;2023-06-24T08:53:05;20.30;55.40
39695;DHT22;25367;-35.352;149.036;2023-06-24T08:55:40;20.30;55.30
39695;DHT22;25367;-35.352;149.036;2023-06-24T08:58:11;20.30;55.20
39695;DHT22;25367;-35.352;149.036;2023-06-24T09:00:41;20.30;55.20
39695;DHT22;25367;-35.352;149.036;2023-06-24T09:03:12;20.30;55.00
39695;DHT22;25367;-35.352;149.036;2023-06-24T09:05:44;20.30;55.00
39695;DHT22;25367;-35.352;149.036;2023-06-24T09:08:14;20.30;54.90
39695;DHT22;25367;-35.352;149.036;2023-06-24T09:10:43;20.20;54.90
39695;DHT22;25367;-35.352;149.036;2023-06-24T09:13:13;20.20;54.80
39695;DHT22;25367;-35.352;149.036;2023-06-24T09:15:42;20.20;54.80
39695;DHT22;25367;-35.352;149.036;2023-06-24T09:18:12;20.20;54.80
39695;DHT22;25367;-35.352;149.036;2023-06-24T09:20:49;20.20;54.70
39695;DHT22;25367;-35.352;149.036;2023-06-24T09:23:18;20.20;54.80
39695;DHT22;25367;-35.352;149.036;2023-06-24T09:25:56;20.20;54.70
39695;DHT22;25367;-35.352;149.036;2023-06-24T09:28:28;20.20;54.80
39695;DHT22;25367;-35.352;149.036;2023-06-24T09:31:10;20.10;54.70
39695;DHT22;25367;-35.352;149.036;2023-06-24T09:33:41;20.10;54.80
39695;DHT22;25367;-35.352;149.036;2023-06-24T09:36:16;20.00;54.70
39695;DHT22;25367;-35.352;149.036;2023-06-24T09:38:46;20.10;54.80
39695;DHT22;25367;-35.352;149.036;2023-06-24T09:41:16;20.00;54.80
39695;DHT22;25367;-35.352;149.036;2023-06-24T09:43:45;20.00;54.80
39695;DHT22;25367;-35.352;149.036;2023-06-24T09:46:15;20.10;54.90
39695;DHT22;25367;-35.352;149.036;2023-06-24T09:48:45;20.00;54.80
39695;DHT22;25367;-35.352;149.036;2023-06-24T09:51:18;20.00;54.90
39695;DHT22;25367;-35.352;149.036;2023-06-24T09:53:48;20.00;54.90
39695;DHT22;25367;-35.352;149.036;2023-06-24T09:56:18;20.00;55.10
39695;DHT22;25367;-35.352;149.036;2023-06-24T09:58:48;20.00;55.10
39695;DHT22;25367;-35.352;149.036;2023-06-24T10:01:18;20.00;55.10
39695;DHT22;25367;-35.352;149.036;2023-06-24T10:03:48;20.10;55.30
39695;DHT22;25367;-35.352;149.036;2023-06-24T10:06:21;20.10;55.30
39695;DHT22;25367;-35.352;149.036;2023-06-24T10:08:51;20.10;55.40
39695;DHT22;25367;-35.352;149.036;2023-06-24T10:11:22;20.10;55.50
39695;DHT22;25367;-35.352;149.036;2023-06-24T10:13:52;20.10;55.50
39695;DHT22;25367;-35.352;149.036;2023-06-24T10:16:22;20.20;55.60
39695;DHT22;25367;-35.352;149.036;2023-06-24T10:18:52;20.20;55.70
39695;DHT22;25367;-35.352;149.036;2023-06-24T10:21:45;20.20;55.70
39695;DHT22;25367;-35.352;149.036;2023-06-24T10:24:29;20.30;55.70
39695;DHT22;25367;-35.352;149.036;2023-06-24T10:27:08;20.30;55.40
39695;DHT22;25367;-35.352;149.036;2023-06-24T10:29:39;20.30;55.30
39695;DHT22;25367;-35.352;149.036;2023-06-24T10:32:09;20.30;55.10
39695;DHT22;25367;-35.352;149.036;2023-06-24T10:34:42;20.30;55.00
39695;DHT22;25367;-35.352;149.036;2023-06-24T10:37:20;20.40;54.90
39695;DHT22;25367;-35.352;149.036;2023-06-24T10:39:51;20.40;54.90
39695;DHT22;25367;-35.352;149.036;2023-06-24T10:42:37;20.30;54.80
39695;DHT22;25367;-35.352;149.036;2023-06-24T10:45:18;20.40;54.80
39695;DHT22;25367;-35.352;149.036;2023-06-24T10:47:49;20.40;54.70
39695;DHT22;25367;-35.352;149.036;2023-06-24T10:50:20;20.30;54.70
39695;DHT22;25367;-35.352;149.036;2023-06-24T10:52:54;20.40;54.60
39695;DHT22;25367;-35.352;149.036;2023-06-24T10:55:22;20.40;54.60
39695;DHT22;25367;-35.352;149.036;2023-06-24T10:57:52;20.30;54.60
39695;DHT22;25367;-35.352;149.036;2023-06-24T11:00:22;20.30;54.70
39695;DHT22;25367;-35.352;149.036;2023-06-24T11:02:52;20.20;54.50
39695;DHT22;25367;-35.352;149.036;2023-06-24T11:05:22;20.30;54.40
39695;DHT22;25367;-35.352;149.036;2023-06-24T11:07:55;20.20;54.30
39695;DHT22;25367;-35.352;149.036;2023-06-24T11:10:26;20.20;54.30
39695;DHT22;25367;-35.352;149.036;2023-06-24T11:12:55;20.20;54.30
39695;DHT22;25367;-35.352;149.036;2023-06-24T11:15:26;20.20;54.30
39695;DHT22;25367;-35.352;149.036;2023-06-24T11:17:55;20.20;54.20
39695;DHT22;25367;-35.352;149.036;2023-06-24T11:20:24;20.20;54.10
39695;DHT22;25367;-35.352;149.036;2023-06-24T11:22:57;20.20;54.20
39695;DHT22;25367;-35.352;149.036;2023-06-24T11:25:27;20.20;54.10
39695;DHT22;25367;-35.352;149.036;2023-06-24T11:27:56;20.10;54.10
39695;DHT22;25367;-35.352;149.036;2023-06-24T11:30:26;20.10;54.10
39695;DHT22;25367;-35.352;149.036;2023-06-24T11:32:55;20.10;54.00
39695;DHT22;25367;-35.352;149.036;2023-06-24T11:35:25;20.10;54.00
39695;DHT22;25367;-35.352;149.036;2023-06-24T11:37:59;20.10;54.00
39695;DHT22;25367;-35.352;149.036;2023-06-24T11:40:30;20.10;54.00
39695;DHT22;25367;-35.352;149.036;2023-06-24T11:43:01;20.10;53.90
39695;DHT22;25367;-35.352;149.036;2023-06-24T11:45:32;20.10;53.90
39695;DHT22;25367;-35.352;149.036;2023-06-24T11:48:05;20.00;53.80
39695;DHT22;25367;-35.352;149.036;2023-06-24T11:50:34;20.00;53.80
39695;DHT22;25367;-35.352;149.036;2023-06-24T11:53:08;19.90;53.90
39695;DHT22;25367;-35.352;149.036;2023-06-24T11:55:37;19.90;54.10
39695;DHT22;25367;-35.352;149.036;2023-06-24T11:58:07;19.90;54.00
39695;DHT22;25367;-35.352;149.036;2023-06-24T12:00:38;19.90;53.90
39695;DHT22;25367;-35.352;149.036;2023-06-24T12:03:08;19.90;53.80
39695;DHT22;25367;-35.352;149.036;2023-06-24T12:05:39;19.90;53.80
39695;DHT22;25367;-35.352;149.036;2023-06-24T12:08:13;19.90;53.80
39695;DHT22;25367;-35.352;149.036;2023-06-24T12:10:44;19.90;53.70
39695;DHT22;25367;-35.352;149.036;2023-06-24T12:13:14;19.80;53.70
39695;DHT22;25367;-35.352;149.036;2023-06-24T12:15:44;19.80;53.60
39695;DHT22;25367;-35.352;149.036;2023-06-24T12:18:14;19.80;53.60
39695;DHT22;25367;-35.352;149.036;2023-06-24T12:20:43;19.80;53.60
39695;DHT22;25367;-35.352;149.036;2023-06-24T12:23:16;19.80;53.60
39695;DHT22;25367;-35.352;149.036;2023-06-24T12:25:46;19.70;53.60
39695;DHT22;25367;-35.352;149.036;2023-06-24T12:28:16;19.70;53.60
39695;DHT22;25367;-35.352;149.036;2023-06-24T12:30:45;19.70;53.60
39695;DHT22;25367;-35.352;149.036;2023-06-24T12:33:15;19.60;53.50
39695;DHT22;25367;-35.352;149.036;2023-06-24T12:35:44;19.60;53.50
39695;DHT22;25367;-35.352;149.036;2023-06-24T12:38:17;19.60;53.50
39695;DHT22;25367;-35.352;149.036;2023-06-24T12:40:47;19.60;54.10
39695;DHT22;25367;-35.352;149.036;2023-06-24T12:43:16;19.60;53.50
39695;DHT22;25367;-35.352;149.036;2023-06-24T12:45:46;19.60;53.50
39695;DHT22;25367;-35.352;149.036;2023-06-24T12:48:16;19.60;53.50
39695;DHT22;25367;-35.352;149.036;2023-06-24T12:50:45;19.50;53.40
39695;DHT22;25367;-35.352;149.036;2023-06-24T12:53:18;19.50;53.40
39695;DHT22;25367;-35.352;149.036;2023-06-24T12:55:48;19.50;53.40
39695;DHT22;25367;-35.352;149.036;2023-06-24T12:58:21;19.50;53.40
39695;DHT22;25367;-35.352;149.036;2023-06-24T13:00:51;19.50;53.50
39695;DHT22;25367;-35.352;149.036;2023-06-24T13:03:21;19.40;53.40
39695;DHT22;25367;-35.352;149.036;2023-06-24T13:05:51;19.40;53.40
39695;DHT22;25367;-35.352;149.036;2023-06-24T13:08:23;19.40;53.40
39695;DHT22;25367;-35.352;149.036;2023-06-24T13:10:53;19.40;53.40
39695;DHT22;25367;-35.352;149.036;2023-06-24T13:13:22;19.40;53.40
39695;DHT22;25367;-35.352;149.036;2023-06-24T13:15:52;19.40;53.40
39695;DHT22;25367;-35.352;149.036;2023-06-24T13:18:22;19.30;53.40
39695;DHT22;25367;-35.352;149.036;2023-06-24T13:20:51;19.30;53.40
39695;DHT22;25367;-35.352;149.036;2023-06-24T13:23:24;19.30;53.30
39695;DHT22;25367;-35.352;149.036;2023-06-24T13:25:54;19.30;53.40
39695;DHT22;25367;-35.352;149.036;2023-06-24T13:28:23;19.20;53.30
39695;DHT22;25367;-35.352;149.036;2023-06-24T13:30:53;19.20;53.30
39695;DHT22;25367;-35.352;149.036;2023-06-24T13:33:23;19.20;53.40
39695;DHT22;25367;-35.352;149.036;2023-06-24T13:35:54;19.20;53.30
39695;DHT22;25367;-35.352;149.036;2023-06-24T13:38:27;19.20;53.30
39695;DHT22;25367;-35.352;149.036;2023-06-24T13:40:57;19.20;53.40
39695;DHT22;25367;-35.352;149.036;2023-06-24T13:43:27;19.10;53.40
39695;DHT22;25367;-35.352;149.036;2023-06-24T13:45:56;19.10;53.40
39695;DHT22;25367;-35.352;149.036;2023-06-24T13:48:26;19.10;53.40
39695;DHT22;25367;-35.352;149.036;2023-06-24T13:50:55;19.10;53.40
39695;DHT22;25367;-35.352;149.036;2023-06-24T13:53:27;19.10;53.40
39695;DHT22;25367;-35.352;149.036;2023-06-24T13:55:57;19.00;53.40
39695;DHT22;25367;-35.352;149.036;2023-06-24T13:58:27;19.00;53.40
39695;DHT22;25367;-35.352;149.036;2023-06-24T14:00:57;19.00;53.40
39695;DHT22;25367;-35.352;149.036;2023-06-24T14:03:26;19.00;53.50
39695;DHT22;25367;-35.352;149.036;2023-06-24T14:05:56;19.00;53.50
39695;DHT22;25367;-35.352;149.036;2023-06-24T14:08:29;18.90;53.50
39695;DHT22;25367;-35.352;149.036;2023-06-24T14:10:59;18.90;53.50
39695;DHT22;25367;-35.352;149.036;2023-06-24T14:13:29;18.90;53.50
39695;DHT22;25367;-35.352;149.036;2023-06-24T14:15:58;18.90;53.60
39695;DHT22;25367;-35.352;149.036;2023-06-24T14:18:28;18.90;53.60
39695;DHT22;25367;-35.352;149.036;2023-06-24T14:20:58;18.90;54.20
39695;DHT22;25367;-35.352;149.036;2023-06-24T14:23:31;18.80;53.60
39695;DHT22;25367;-35.352;149.036;2023-06-24T14:26:01;18.80;53.60
39695;DHT22;25367;-35.352;149.036;2023-06-24T14:28:30;18.80;53.60
39695;DHT22;25367;-35.352;149.036;2023-06-24T14:31:00;18.80;53.70
39695;DHT22;25367;-35.352;149.036;2023-06-24T14:33:29;18.80;53.60
39695;DHT22;25367;-35.352;149.036;2023-06-24T14:35:59;18.70;53.60
39695;DHT22;25367;-35.352;149.036;2023-06-24T14:38:32;18.70;53.60
39695;DHT22;25367;-35.352;149.036;2023-06-24T14:41:01;18.70;53.60
39695;DHT22;25367;-35.352;149.036;2023-06-24T14:43:31;18.70;53.60
39695;DHT22;25367;-35.352;149.036;2023-06-24T14:46:01;18.70;53.60
39695;DHT22;25367;-35.352;149.036;2023-06-24T14:48:30;18.60;53.60
39695;DHT22;25367;-35.352;149.036;2023-06-24T14:51:00;18.60;53.60
39695;DHT22;25367;-35.352;149.036;2023-06-24T14:53:33;18.60;53.60
39695;DHT22;25367;-35.352;149.036;2023-06-24T14:56:02;18.60;53.60
39695;DHT22;25367;-35.352;149.036;2023-06-24T14:58:32;18.60;53.60
39695;DHT22;25367;-35.352;149.036;2023-06-24T15:01:02;18.60;53.60
39695;DHT22;25367;-35.352;149.036;2023-06-24T15:03:31;18.50;53.60
39695;DHT22;25367;-35.352;149.036;2023-06-24T15:06:01;18.50;53.60
39695;DHT22;25367;-35.352;149.036;2023-06-24T15:08:34;18.50;53.60
39695;DHT22;25367;-35.352;149.036;2023-06-24T15:11:02;18.50;53.70